sensor_id;sensor_type;location;lat;lon;timestamp;P1;durP1;ratioP1;P2;durP2;ratioP2
11287;SDS011;5700;50.996;7.044;2023-12-22T00:01:40;1.48;;;0.73;;
11287;SDS011;5700;50.996;7.044;2023-12-22T00:04:41;3.90;;;0.90;;
11287;SDS011;5700;50.996;7.044;2023-12-22T00:07:42;3.40;;;1.10;;
11287;SDS011;5700;50.996;7.044;2023-12-22T00:10:44;5.10;;;1.42;;
11287;SDS011;5700;50.996;7.044;2023-12-22T00:13:47;2.25;;;0.68;;
11287;SDS011;5700;50.996;7.044;2023-12-22T00:16:49;3.35;;;0.88;;
11287;SDS011;5700;50.996;7.044;2023-12-22T00:19:51;4.55;;;0.93;;
11287;SDS011;5700;50.996;7.044;2023-12-22T00:22:52;7.35;;;1.23;;
11287;SDS011;5700;50.996;7.044;2023-12-22T00:25:54;4.35;;;1.20;;
11287;SDS011;5700;50.996;7.044;2023-12-22T00:28:57;3.20;;;0.88;;
11287;SDS011;5700;50.996;7.044;2023-12-22T00:31:58;3.15;;;1.00;;
11287;SDS011;5700;50.996;7.044;2023-12-22T00:34:59;3.20;;;0.68;;
11287;SDS011;5700;50.996;7.044;2023-12-22T00:38:01;4.40;;;0.98;;
11287;SDS011;5700;50.996;7.044;2023-12-22T00:41:02;6.55;;;1.15;;
11287;SDS011;5700;50.996;7.044;2023-12-22T00:44:05;5.25;;;1.50;;
11287;SDS011;5700;50.996;7.044;2023-12-22T00:47:07;6.45;;;0.82;;
11287;SDS011;5700;50.996;7.044;2023-12-22T00:50:09;5.22;;;1.05;;
11287;SDS011;5700;50.996;7.044;2023-12-22T00:53:10;5.20;;;0.80;;
11287;SDS011;5700;50.996;7.044;2023-12-22T00:56:12;1.52;;;0.68;;
11287;SDS011;5700;50.996;7.044;2023-12-22T00:59:15;7.28;;;1.50;;
11287;SDS011;5700;50.996;7.044;2023-12-22T01:02:17;4.45;;;1.25;;
11287;SDS011;5700;50.996;7.044;2023-12-22T01:05:20;6.15;;;1.20;;
11287;SDS011;5700;50.996;7.044;2023-12-22T01:08:21;7.95;;;1.75;;
11287;SDS011;5700;50.996;7.044;2023-12-22T01:11:23;8.55;;;1.50;;
11287;SDS011;5700;50.996;7.044;2023-12-22T01:14:26;3.75;;;1.20;;
11287;SDS011;5700;50.996;7.044;2023-12-22T01:17:27;5.30;;;1.10;;
11287;SDS011;5700;50.996;7.044;2023-12-22T01:20:29;4.97;;;1.10;;
11287;SDS011;5700;50.996;7.044;2023-12-22T01:23:31;6.82;;;1.00;;
11287;SDS011;5700;50.996;7.044;2023-12-22T01:26:32;3.72;;;1.02;;
11287;SDS011;5700;50.996;7.044;2023-12-22T01:29:35;5.38;;;1.20;;
11287;SDS011;5700;50.996;7.044;2023-12-22T01:32:36;5.78;;;1.13;;
11287;SDS011;5700;50.996;7.044;2023-12-22T01:35:38;7.03;;;1.90;;
11287;SDS011;5700;50.996;7.044;2023-12-22T01:38:39;4.40;;;1.48;;
11287;SDS011;5700;50.996;7.044;2023-12-22T01:41:41;7.55;;;1.42;;
11287;SDS011;5700;50.996;7.044;2023-12-22T01:44:44;5.78;;;1.30;;
11287;SDS011;5700;50.996;7.044;2023-12-22T01:47:45;5.53;;;1.05;;
11287;SDS011;5700;50.996;7.044;2023-12-22T01:50:47;6.80;;;0.90;;
11287;SDS011;5700;50.996;7.044;2023-12-22T01:53:50;7.10;;;1.30;;
11287;SDS011;5700;50.996;7.044;2023-12-22T01:56:52;3.50;;;1.40;;
11287;SDS011;5700;50.996;7.044;2023-12-22T01:59:57;3.72;;;1.20;;
11287;SDS011;5700;50.996;7.044;2023-12-22T02:02:58;2.00;;;0.95;;
11287;SDS011;5700;50.996;7.044;2023-12-22T02:06:00;3.03;;;0.50;;
11287;SDS011;5700;50.996;7.044;2023-12-22T02:09:02;9.15;;;1.15;;
11287;SDS011;5700;50.996;7.044;2023-12-22T02:12:05;6.85;;;1.17;;
11287;SDS011;5700;50.996;7.044;2023-12-22T02:15:08;3.30;;;1.40;;
11287;SDS011;5700;50.996;7.044;2023-12-22T02:18:11;5.60;;;1.00;;
11287;SDS011;5700;50.996;7.044;2023-12-22T02:21:15;5.57;;;1.13;;
11287;SDS011;5700;50.996;7.044;2023-12-22T02:24:18;3.83;;;1.10;;
11287;SDS011;5700;50.996;7.044;2023-12-22T02:27:22;8.05;;;0.90;;
11287;SDS011;5700;50.996;7.044;2023-12-22T02:30:34;7.93;;;1.05;;
11287;SDS011;5700;50.996;7.044;2023-12-22T02:33:40;5.95;;;1.73;;
11287;SDS011;5700;50.996;7.044;2023-12-22T02:36:42;3.20;;;1.10;;
11287;SDS011;5700;50.996;7.044;2023-12-22T02:39:46;4.78;;;1.20;;
11287;SDS011;5700;50.996;7.044;2023-12-22T02:42:47;5.53;;;1.30;;
11287;SDS011;5700;50.996;7.044;2023-12-22T02:45:49;3.72;;;1.00;;
11287;SDS011;5700;50.996;7.044;2023-12-22T02:48:51;9.20;;;1.42;;
11287;SDS011;5700;50.996;7.044;2023-12-22T02:51:53;3.42;;;1.08;;
11287;SDS011;5700;50.996;7.044;2023-12-22T02:54:56;6.95;;;1.00;;
11287;SDS011;5700;50.996;7.044;2023-12-22T02:57:57;5.15;;;1.67;;
11287;SDS011;5700;50.996;7.044;2023-12-22T03:00:59;6.13;;;1.30;;
11287;SDS011;5700;50.996;7.044;2023-12-22T03:04:00;8.90;;;1.48;;
11287;SDS011;5700;50.996;7.044;2023-12-22T03:07:02;10.75;;;2.75;;
11287;SDS011;5700;50.996;7.044;2023-12-22T03:10:05;5.38;;;2.05;;
11287;SDS011;5700;50.996;7.044;2023-12-22T03:13:08;7.45;;;2.25;;
11287;SDS011;5700;50.996;7.044;2023-12-22T03:16:09;8.68;;;2.70;;
11287;SDS011;5700;50.996;7.044;2023-12-22T03:19:11;8.77;;;2.08;;
11287;SDS011;5700;50.996;7.044;2023-12-22T03:22:12;5.60;;;1.92;;
11287;SDS011;5700;50.996;7.044;2023-12-22T03:25:15;10.80;;;2.45;;
11287;SDS011;5700;50.996;7.044;2023-12-22T03:28:17;10.27;;;2.42;;
11287;SDS011;5700;50.996;7.044;2023-12-22T03:31:18;9.93;;;1.58;;
11287;SDS011;5700;50.996;7.044;2023-12-22T03:34:19;4.95;;;1.50;;
11287;SDS011;5700;50.996;7.044;2023-12-22T03:37:21;9.00;;;1.75;;
11287;SDS011;5700;50.996;7.044;2023-12-22T03:40:24;5.63;;;1.73;;
11287;SDS011;5700;50.996;7.044;2023-12-22T03:43:25;13.57;;;1.95;;
11287;SDS011;5700;50.996;7.044;2023-12-22T03:46:27;4.60;;;1.58;;
11287;SDS011;5700;50.996;7.044;2023-12-22T03:49:29;14.90;;;2.15;;
11287;SDS011;5700;50.996;7.044;2023-12-22T03:52:30;11.52;;;1.50;;
11287;SDS011;5700;50.996;7.044;2023-12-22T03:55:33;9.73;;;1.80;;
11287;SDS011;5700;50.996;7.044;2023-12-22T03:58:35;9.57;;;1.65;;
11287;SDS011;5700;50.996;7.044;2023-12-22T04:01:37;8.73;;;1.83;;
11287;SDS011;5700;50.996;7.044;2023-12-22T04:04:38;4.70;;;1.40;;
11287;SDS011;5700;50.996;7.044;2023-12-22T04:07:40;7.93;;;1.25;;
11287;SDS011;5700;50.996;7.044;2023-12-22T04:10:43;14.43;;;1.60;;
11287;SDS011;5700;50.996;7.044;2023-12-22T04:13:45;7.32;;;1.50;;
11287;SDS011;5700;50.996;7.044;2023-12-22T04:16:46;5.90;;;1.77;;
11287;SDS011;5700;50.996;7.044;2023-12-22T04:19:48;14.70;;;2.13;;
11287;SDS011;5700;50.996;7.044;2023-12-22T04:22:49;11.52;;;2.05;;
11287;SDS011;5700;50.996;7.044;2023-12-22T04:25:52;10.05;;;2.13;;
11287;SDS011;5700;50.996;7.044;2023-12-22T04:28:53;17.25;;;2.13;;
11287;SDS011;5700;50.996;7.044;2023-12-22T04:31:55;7.13;;;1.75;;
11287;SDS011;5700;50.996;7.044;2023-12-22T04:34:57;9.60;;;1.48;;
11287;SDS011;5700;50.996;7.044;2023-12-22T04:37:58;6.63;;;1.23;;
11287;SDS011;5700;50.996;7.044;2023-12-22T04:41:01;2.97;;;1.00;;
11287;SDS011;5700;50.996;7.044;2023-12-22T04:44:03;7.35;;;1.70;;
11287;SDS011;5700;50.996;7.044;2023-12-22T04:47:05;14.27;;;1.50;;
11287;SDS011;5700;50.996;7.044;2023-12-22T04:50:07;9.30;;;1.77;;
11287;SDS011;5700;50.996;7.044;2023-12-22T04:53:09;8.63;;;1.40;;
11287;SDS011;5700;50.996;7.044;2023-12-22T04:56:12;11.05;;;1.65;;
11287;SDS011;5700;50.996;7.044;2023-12-22T04:59:14;7.20;;;1.38;;
11287;SDS011;5700;50.996;7.044;2023-12-22T05:02:15;6.05;;;1.50;;
11287;SDS011;5700;50.996;7.044;2023-12-22T05:05:17;8.05;;;2.25;;
11287;SDS011;5700;50.996;7.044;2023-12-22T05:08:19;12.57;;;1.60;;
11287;SDS011;5700;50.996;7.044;2023-12-22T05:11:22;8.25;;;1.48;;
11287;SDS011;5700;50.996;7.044;2023-12-22T05:14:23;11.18;;;2.00;;
11287;SDS011;5700;50.996;7.044;2023-12-22T05:17:25;11.05;;;1.77;;
11287;SDS011;5700;50.996;7.044;2023-12-22T05:20:26;17.63;;;2.20;;
11287;SDS011;5700;50.996;7.044;2023-12-22T05:23:28;11.00;;;1.67;;
11287;SDS011;5700;50.996;7.044;2023-12-22T05:26:31;9.07;;;1.67;;
11287;SDS011;5700;50.996;7.044;2023-12-22T05:29:32;11.32;;;1.80;;
11287;SDS011;5700;50.996;7.044;2023-12-22T05:32:34;10.27;;;2.17;;
11287;SDS011;5700;50.996;7.044;2023-12-22T05:35:35;7.63;;;1.65;;
11287;SDS011;5700;50.996;7.044;2023-12-22T05:38:37;9.00;;;2.00;;
11287;SDS011;5700;50.996;7.044;2023-12-22T05:41:40;8.30;;;1.73;;
11287;SDS011;5700;50.996;7.044;2023-12-22T05:44:41;9.90;;;1.98;;
11287;SDS011;5700;50.996;7.044;2023-12-22T05:47:43;6.68;;;1.50;;
11287;SDS011;5700;50.996;7.044;2023-12-22T05:50:45;11.40;;;2.03;;
11287;SDS011;5700;50.996;7.044;2023-12-22T05:53:46;10.30;;;2.08;;
11287;SDS011;5700;50.996;7.044;2023-12-22T05:56:49;9.25;;;2.72;;
11287;SDS011;5700;50.996;7.044;2023-12-22T05:59:51;9.85;;;2.00;;
11287;SDS011;5700;50.996;7.044;2023-12-22T06:02:53;10.07;;;2.40;;
11287;SDS011;5700;50.996;7.044;2023-12-22T06:05:55;16.17;;;1.70;;
11287;SDS011;5700;50.996;7.044;2023-12-22T06:08:57;7.70;;;1.52;;
11287;SDS011;5700;50.996;7.044;2023-12-22T06:12:00;7.13;;;1.35;;
11287;SDS011;5700;50.996;7.044;2023-12-22T06:15:01;20.50;;;1.80;;
11287;SDS011;5700;50.996;7.044;2023-12-22T06:18:03;6.03;;;1.85;;
11287;SDS011;5700;50.996;7.044;2023-12-22T06:21:05;10.15;;;1.90;;
11287;SDS011;5700;50.996;7.044;2023-12-22T06:24:06;11.93;;;1.77;;
11287;SDS011;5700;50.996;7.044;2023-12-22T06:27:11;5.63;;;1.50;;
11287;SDS011;5700;50.996;7.044;2023-12-22T06:30:12;12.38;;;2.60;;
11287;SDS011;5700;50.996;7.044;2023-12-22T06:33:16;11.57;;;1.50;;
11287;SDS011;5700;50.996;7.044;2023-12-22T06:36:18;11.05;;;1.75;;
11287;SDS011;5700;50.996;7.044;2023-12-22T06:39:20;7.20;;;2.10;;
11287;SDS011;5700;50.996;7.044;2023-12-22T06:42:23;9.55;;;2.00;;
11287;SDS011;5700;50.996;7.044;2023-12-22T06:45:24;7.22;;;1.67;;
11287;SDS011;5700;50.996;7.044;2023-12-22T06:48:26;12.13;;;2.20;;
11287;SDS011;5700;50.996;7.044;2023-12-22T06:51:30;9.70;;;1.33;;
11287;SDS011;5700;50.996;7.044;2023-12-22T06:54:34;9.68;;;1.88;;
11287;SDS011;5700;50.996;7.044;2023-12-22T06:57:37;8.90;;;1.55;;
11287;SDS011;5700;50.996;7.044;2023-12-22T07:00:40;12.18;;;1.80;;
11287;SDS011;5700;50.996;7.044;2023-12-22T07:03:41;9.48;;;1.63;;
11287;SDS011;5700;50.996;7.044;2023-12-22T07:06:43;13.13;;;2.17;;
11287;SDS011;5700;50.996;7.044;2023-12-22T07:09:47;5.93;;;1.20;;
11287;SDS011;5700;50.996;7.044;2023-12-22T07:12:50;4.55;;;0.90;;
11287;SDS011;5700;50.996;7.044;2023-12-22T07:15:52;6.60;;;1.30;;
11287;SDS011;5700;50.996;7.044;2023-12-22T07:18:53;3.67;;;1.02;;
11287;SDS011;5700;50.996;7.044;2023-12-22T07:21:55;2.28;;;0.80;;
11287;SDS011;5700;50.996;7.044;2023-12-22T07:24:57;2.83;;;0.93;;
11287;SDS011;5700;50.996;7.044;2023-12-22T07:27:59;3.63;;;0.82;;
11287;SDS011;5700;50.996;7.044;2023-12-22T07:31:01;6.43;;;0.80;;
11287;SDS011;5700;50.996;7.044;2023-12-22T07:34:02;5.55;;;1.05;;
11287;SDS011;5700;50.996;7.044;2023-12-22T07:37:04;14.27;;;1.52;;
11287;SDS011;5700;50.996;7.044;2023-12-22T07:40:06;4.90;;;1.25;;
11287;SDS011;5700;50.996;7.044;2023-12-22T07:43:10;3.20;;;0.90;;
11287;SDS011;5700;50.996;7.044;2023-12-22T07:46:16;6.82;;;1.00;;
11287;SDS011;5700;50.996;7.044;2023-12-22T07:49:18;4.13;;;1.13;;
11287;SDS011;5700;50.996;7.044;2023-12-22T07:52:20;3.45;;;1.30;;
11287;SDS011;5700;50.996;7.044;2023-12-22T07:55:22;3.83;;;1.20;;
11287;SDS011;5700;50.996;7.044;2023-12-22T07:58:25;6.10;;;1.38;;
11287;SDS011;5700;50.996;7.044;2023-12-22T08:01:27;4.00;;;1.30;;
11287;SDS011;5700;50.996;7.044;2023-12-22T08:04:28;6.82;;;1.90;;
11287;SDS011;5700;50.996;7.044;2023-12-22T08:07:30;4.03;;;1.65;;
11287;SDS011;5700;50.996;7.044;2023-12-22T08:10:32;5.47;;;1.63;;
11287;SDS011;5700;50.996;7.044;2023-12-22T08:13:34;5.60;;;2.13;;
11287;SDS011;5700;50.996;7.044;2023-12-22T08:16:37;9.35;;;2.38;;
11287;SDS011;5700;50.996;7.044;2023-12-22T08:19:39;7.25;;;1.92;;
11287;SDS011;5700;50.996;7.044;2023-12-22T08:22:42;11.10;;;2.17;;
11287;SDS011;5700;50.996;7.044;2023-12-22T08:25:44;15.98;;;2.90;;
11287;SDS011;5700;50.996;7.044;2023-12-22T08:28:47;12.90;;;2.30;;
11287;SDS011;5700;50.996;7.044;2023-12-22T08:31:48;20.70;;;3.60;;
11287;SDS011;5700;50.996;7.044;2023-12-22T08:34:50;19.58;;;3.70;;
11287;SDS011;5700;50.996;7.044;2023-12-22T08:37:51;26.08;;;3.60;;
11287;SDS011;5700;50.996;7.044;2023-12-22T08:40:53;15.38;;;3.92;;
11287;SDS011;5700;50.996;7.044;2023-12-22T08:43:56;13.85;;;3.58;;
11287;SDS011;5700;50.996;7.044;2023-12-22T08:46:57;21.33;;;3.17;;
11287;SDS011;5700;50.996;7.044;2023-12-22T08:49:59;20.80;;;3.95;;
11287;SDS011;5700;50.996;7.044;2023-12-22T08:53:04;20.20;;;5.68;;
11287;SDS011;5700;50.996;7.044;2023-12-22T08:56:05;24.70;;;6.97;;
11287;SDS011;5700;50.996;7.044;2023-12-22T08:59:09;21.67;;;5.55;;
11287;SDS011;5700;50.996;7.044;2023-12-22T09:02:12;18.27;;;3.72;;
11287;SDS011;5700;50.996;7.044;2023-12-22T09:05:13;18.25;;;4.00;;
11287;SDS011;5700;50.996;7.044;2023-12-22T09:08:15;19.23;;;3.10;;
11287;SDS011;5700;50.996;7.044;2023-12-22T09:11:17;16.52;;;3.33;;
11287;SDS011;5700;50.996;7.044;2023-12-22T09:14:20;19.73;;;3.35;;
11287;SDS011;5700;50.996;7.044;2023-12-22T09:17:22;15.95;;;2.95;;
11287;SDS011;5700;50.996;7.044;2023-12-22T09:20:24;18.38;;;2.97;;
11287;SDS011;5700;50.996;7.044;2023-12-22T09:23:25;17.83;;;3.15;;
11287;SDS011;5700;50.996;7.044;2023-12-22T09:26:27;11.23;;;2.60;;
11287;SDS011;5700;50.996;7.044;2023-12-22T09:29:30;18.40;;;3.17;;
11287;SDS011;5700;50.996;7.044;2023-12-22T09:32:33;13.05;;;3.42;;
11287;SDS011;5700;50.996;7.044;2023-12-22T09:35:35;14.95;;;2.63;;
11287;SDS011;5700;50.996;7.044;2023-12-22T09:38:37;16.13;;;2.65;;
11287;SDS011;5700;50.996;7.044;2023-12-22T09:41:38;15.73;;;3.30;;
11287;SDS011;5700;50.996;7.044;2023-12-22T09:44:41;14.90;;;4.18;;
11287;SDS011;5700;50.996;7.044;2023-12-22T09:47:43;18.50;;;2.85;;
11287;SDS011;5700;50.996;7.044;2023-12-22T09:50:46;13.68;;;2.60;;
11287;SDS011;5700;50.996;7.044;2023-12-22T09:53:47;12.85;;;2.72;;
11287;SDS011;5700;50.996;7.044;2023-12-22T09:56:50;8.77;;;2.40;;
11287;SDS011;5700;50.996;7.044;2023-12-22T09:59:53;11.68;;;2.90;;
11287;SDS011;5700;50.996;7.044;2023-12-22T10:02:55;10.50;;;2.97;;
11287;SDS011;5700;50.996;7.044;2023-12-22T10:05:57;11.02;;;2.33;;
11287;SDS011;5700;50.996;7.044;2023-12-22T10:08:58;14.90;;;3.53;;
11287;SDS011;5700;50.996;7.044;2023-12-22T10:11:59;10.27;;;1.98;;
11287;SDS011;5700;50.996;7.044;2023-12-22T10:15:04;7.57;;;2.15;;
11287;SDS011;5700;50.996;7.044;2023-12-22T10:18:07;6.57;;;1.70;;
11287;SDS011;5700;50.996;7.044;2023-12-22T10:21:09;8.70;;;3.00;;
11287;SDS011;5700;50.996;7.044;2023-12-22T10:27:43;6.63;;;1.40;;
11287;SDS011;5700;50.996;7.044;2023-12-22T10:30:46;5.57;;;1.80;;
11287;SDS011;5700;50.996;7.044;2023-12-22T10:33:49;5.13;;;1.35;;
11287;SDS011;5700;50.996;7.044;2023-12-22T10:36:51;7.18;;;1.33;;
11287;SDS011;5700;50.996;7.044;2023-12-22T10:39:53;3.63;;;1.00;;
11287;SDS011;5700;50.996;7.044;2023-12-22T10:42:55;3.00;;;0.90;;
11287;SDS011;5700;50.996;7.044;2023-12-22T10:45:58;5.13;;;1.27;;
11287;SDS011;5700;50.996;7.044;2023-12-22T10:48:59;5.18;;;1.23;;
11287;SDS011;5700;50.996;7.044;2023-12-22T10:52:01;8.20;;;1.75;;
11287;SDS011;5700;50.996;7.044;2023-12-22T10:55:04;5.40;;;1.50;;
11287;SDS011;5700;50.996;7.044;2023-12-22T10:58:05;6.70;;;1.60;;
11287;SDS011;5700;50.996;7.044;2023-12-22T11:01:09;4.32;;;1.40;;
11287;SDS011;5700;50.996;7.044;2023-12-22T11:04:13;2.13;;;1.45;;
11287;SDS011;5700;50.996;7.044;2023-12-22T11:07:19;4.47;;;1.58;;
11287;SDS011;5700;50.996;7.044;2023-12-22T11:10:24;3.72;;;1.10;;
11287;SDS011;5700;50.996;7.044;2023-12-22T11:13:27;7.60;;;1.50;;
11287;SDS011;5700;50.996;7.044;2023-12-22T11:16:31;3.00;;;1.20;;
11287;SDS011;5700;50.996;7.044;2023-12-22T11:19:33;2.13;;;1.08;;
11287;SDS011;5700;50.996;7.044;2023-12-22T11:22:37;4.07;;;1.23;;
11287;SDS011;5700;50.996;7.044;2023-12-22T11:25:39;1.42;;;1.00;;
11287;SDS011;5700;50.996;7.044;2023-12-22T11:28:42;1.52;;;1.10;;
11287;SDS011;5700;50.996;7.044;2023-12-22T11:31:46;2.95;;;1.23;;
11287;SDS011;5700;50.996;7.044;2023-12-22T11:34:49;5.47;;;1.40;;
11287;SDS011;5700;50.996;7.044;2023-12-22T11:37:50;2.53;;;1.27;;
11287;SDS011;5700;50.996;7.044;2023-12-22T11:40:53;3.22;;;1.60;;
11287;SDS011;5700;50.996;7.044;2023-12-22T11:43:55;3.45;;;1.40;;
11287;SDS011;5700;50.996;7.044;2023-12-22T11:47:06;4.50;;;1.42;;
11287;SDS011;5700;50.996;7.044;2023-12-22T11:50:09;1.92;;;1.13;;
11287;SDS011;5700;50.996;7.044;2023-12-22T11:53:18;2.90;;;1.70;;
11287;SDS011;5700;50.996;7.044;2023-12-22T11:56:22;4.45;;;1.60;;
11287;SDS011;5700;50.996;7.044;2023-12-22T11:59:26;4.95;;;1.98;;
11287;SDS011;5700;50.996;7.044;2023-12-22T12:02:30;2.42;;;1.30;;
11287;SDS011;5700;50.996;7.044;2023-12-22T12:05:32;3.78;;;1.80;;
11287;SDS011;5700;50.996;7.044;2023-12-22T12:08:33;6.65;;;1.27;;
11287;SDS011;5700;50.996;7.044;2023-12-22T12:15:07;2.97;;;1.25;;
11287;SDS011;5700;50.996;7.044;2023-12-22T12:18:11;1.80;;;0.98;;
11287;SDS011;5700;50.996;7.044;2023-12-22T12:21:13;4.30;;;1.45;;
11287;SDS011;5700;50.996;7.044;2023-12-22T12:24:17;3.30;;;1.17;;
11287;SDS011;5700;50.996;7.044;2023-12-22T12:27:19;3.03;;;1.27;;
11287;SDS011;5700;50.996;7.044;2023-12-22T12:30:21;3.22;;;1.25;;
11287;SDS011;5700;50.996;7.044;2023-12-22T12:33:24;9.07;;;1.23;;
11287;SDS011;5700;50.996;7.044;2023-12-22T12:36:25;3.60;;;1.48;;
11287;SDS011;5700;50.996;7.044;2023-12-22T12:39:28;2.97;;;1.10;;
11287;SDS011;5700;50.996;7.044;2023-12-22T12:42:31;3.50;;;1.30;;
11287;SDS011;5700;50.996;7.044;2023-12-22T12:45:33;3.28;;;1.20;;
11287;SDS011;5700;50.996;7.044;2023-12-22T12:48:36;5.20;;;1.30;;
11287;SDS011;5700;50.996;7.044;2023-12-22T12:51:38;4.15;;;2.00;;
11287;SDS011;5700;50.996;7.044;2023-12-22T12:54:40;4.53;;;1.65;;
11287;SDS011;5700;50.996;7.044;2023-12-22T12:57:42;4.45;;;1.55;;
11287;SDS011;5700;50.996;7.044;2023-12-22T13:00:44;3.00;;;0.88;;
11287;SDS011;5700;50.996;7.044;2023-12-22T13:03:54;3.63;;;1.10;;
11287;SDS011;5700;50.996;7.044;2023-12-22T13:06:56;4.43;;;1.02;;
11287;SDS011;5700;50.996;7.044;2023-12-22T13:09:59;2.55;;;0.90;;
11287;SDS011;5700;50.996;7.044;2023-12-22T13:13:00;3.13;;;1.33;;
11287;SDS011;5700;50.996;7.044;2023-12-22T13:16:03;5.07;;;1.60;;
11287;SDS011;5700;50.996;7.044;2023-12-22T13:19:06;1.17;;;0.75;;
11287;SDS011;5700;50.996;7.044;2023-12-22T13:22:09;5.53;;;1.30;;
11287;SDS011;5700;50.996;7.044;2023-12-22T13:25:10;2.95;;;0.90;;
11287;SDS011;5700;50.996;7.044;2023-12-22T13:28:12;2.90;;;0.82;;
11287;SDS011;5700;50.996;7.044;2023-12-22T13:31:14;1.48;;;0.70;;
11287;SDS011;5700;50.996;7.044;2023-12-22T13:34:20;3.90;;;1.00;;
11287;SDS011;5700;50.996;7.044;2023-12-22T13:37:22;3.38;;;1.08;;
11287;SDS011;5700;50.996;7.044;2023-12-22T13:40:26;4.43;;;1.20;;
11287;SDS011;5700;50.996;7.044;2023-12-22T13:43:28;3.20;;;1.05;;
11287;SDS011;5700;50.996;7.044;2023-12-22T13:46:30;2.78;;;1.15;;
11287;SDS011;5700;50.996;7.044;2023-12-22T13:49:34;3.40;;;0.80;;
11287;SDS011;5700;50.996;7.044;2023-12-22T13:52:36;0.50;;;0.50;;
11287;SDS011;5700;50.996;7.044;2023-12-22T13:55:38;2.88;;;0.85;;
11287;SDS011;5700;50.996;7.044;2023-12-22T13:58:43;4.00;;;1.02;;
11287;SDS011;5700;50.996;7.044;2023-12-22T14:01:45;5.70;;;1.10;;
11287;SDS011;5700;50.996;7.044;2023-12-22T14:04:48;5.13;;;1.30;;
11287;SDS011;5700;50.996;7.044;2023-12-22T14:07:51;3.80;;;1.27;;
11287;SDS011;5700;50.996;7.044;2023-12-22T14:10:52;2.25;;;0.95;;
11287;SDS011;5700;50.996;7.044;2023-12-22T14:13:53;4.10;;;1.02;;
11287;SDS011;5700;50.996;7.044;2023-12-22T14:16:55;3.50;;;0.80;;
11287;SDS011;5700;50.996;7.044;2023-12-22T14:19:58;5.68;;;0.98;;
11287;SDS011;5700;50.996;7.044;2023-12-22T14:22:59;3.58;;;1.42;;
11287;SDS011;5700;50.996;7.044;2023-12-22T14:26:01;2.63;;;1.05;;
11287;SDS011;5700;50.996;7.044;2023-12-22T14:29:05;3.78;;;0.80;;
11287;SDS011;5700;50.996;7.044;2023-12-22T14:32:07;3.58;;;1.40;;
11287;SDS011;5700;50.996;7.044;2023-12-22T14:35:10;4.68;;;0.82;;
11287;SDS011;5700;50.996;7.044;2023-12-22T14:38:12;3.22;;;0.88;;
11287;SDS011;5700;50.996;7.044;2023-12-22T14:41:13;3.65;;;1.20;;
11287;SDS011;5700;50.996;7.044;2023-12-22T14:44:15;5.10;;;1.00;;
11287;SDS011;5700;50.996;7.044;2023-12-22T14:47:16;5.38;;;1.38;;
11287;SDS011;5700;50.996;7.044;2023-12-22T14:50:19;3.72;;;1.15;;
11287;SDS011;5700;50.996;7.044;2023-12-22T14:53:21;7.68;;;1.85;;
11287;SDS011;5700;50.996;7.044;2023-12-22T14:56:22;3.72;;;1.50;;
11287;SDS011;5700;50.996;7.044;2023-12-22T14:59:24;8.45;;;1.35;;
11287;SDS011;5700;50.996;7.044;2023-12-22T15:02:26;7.15;;;1.45;;
11287;SDS011;5700;50.996;7.044;2023-12-22T15:05:29;5.70;;;1.38;;
11287;SDS011;5700;50.996;7.044;2023-12-22T15:08:30;6.43;;;1.23;;
11287;SDS011;5700;50.996;7.044;2023-12-22T15:11:32;3.42;;;1.35;;
11287;SDS011;5700;50.996;7.044;2023-12-22T15:14:34;4.07;;;1.13;;
11287;SDS011;5700;50.996;7.044;2023-12-22T15:17:35;4.50;;;1.15;;
11287;SDS011;5700;50.996;7.044;2023-12-22T15:20:38;3.25;;;1.05;;
11287;SDS011;5700;50.996;7.044;2023-12-22T15:23:40;4.57;;;1.20;;
11287;SDS011;5700;50.996;7.044;2023-12-22T15:26:41;5.72;;;1.13;;
11287;SDS011;5700;50.996;7.044;2023-12-22T15:29:44;5.50;;;0.95;;
11287;SDS011;5700;50.996;7.044;2023-12-22T15:32:46;4.05;;;1.23;;
11287;SDS011;5700;50.996;7.044;2023-12-22T15:35:48;3.78;;;0.75;;
11287;SDS011;5700;50.996;7.044;2023-12-22T15:38:55;4.32;;;1.33;;
11287;SDS011;5700;50.996;7.044;2023-12-22T15:41:57;4.50;;;1.30;;
11287;SDS011;5700;50.996;7.044;2023-12-22T15:44:59;5.40;;;1.38;;
11287;SDS011;5700;50.996;7.044;2023-12-22T15:48:00;3.65;;;1.38;;
11287;SDS011;5700;50.996;7.044;2023-12-22T15:51:07;6.70;;;1.10;;
11287;SDS011;5700;50.996;7.044;2023-12-22T15:54:08;2.97;;;1.20;;
11287;SDS011;5700;50.996;7.044;2023-12-22T15:57:10;4.07;;;1.05;;
11287;SDS011;5700;50.996;7.044;2023-12-22T16:00:12;5.15;;;1.52;;
11287;SDS011;5700;50.996;7.044;2023-12-22T16:03:14;4.55;;;1.45;;
11287;SDS011;5700;50.996;7.044;2023-12-22T16:06:17;3.15;;;1.27;;
11287;SDS011;5700;50.996;7.044;2023-12-22T16:09:19;5.70;;;1.80;;
11287;SDS011;5700;50.996;7.044;2023-12-22T16:12:20;5.72;;;1.15;;
11287;SDS011;5700;50.996;7.044;2023-12-22T16:15:22;7.30;;;0.90;;
11287;SDS011;5700;50.996;7.044;2023-12-22T16:18:23;4.18;;;1.00;;
11287;SDS011;5700;50.996;7.044;2023-12-22T16:21:26;7.10;;;1.45;;
11287;SDS011;5700;50.996;7.044;2023-12-22T16:24:28;2.25;;;1.05;;
11287;SDS011;5700;50.996;7.044;2023-12-22T16:27:31;5.72;;;1.05;;
11287;SDS011;5700;50.996;7.044;2023-12-22T16:30:32;2.88;;;1.05;;
11287;SDS011;5700;50.996;7.044;2023-12-22T16:33:34;5.35;;;1.33;;
11287;SDS011;5700;50.996;7.044;2023-12-22T16:36:36;6.03;;;1.25;;
11287;SDS011;5700;50.996;7.044;2023-12-22T16:39:41;5.93;;;1.58;;
11287;SDS011;5700;50.996;7.044;2023-12-22T16:42:50;5.22;;;1.45;;
11287;SDS011;5700;50.996;7.044;2023-12-22T16:45:52;3.85;;;1.10;;
11287;SDS011;5700;50.996;7.044;2023-12-22T16:48:53;5.38;;;1.33;;
11287;SDS011;5700;50.996;7.044;2023-12-22T16:51:56;4.75;;;1.05;;
11287;SDS011;5700;50.996;7.044;2023-12-22T16:54:57;3.10;;;1.40;;
11287;SDS011;5700;50.996;7.044;2023-12-22T16:58:01;8.77;;;1.73;;
11287;SDS011;5700;50.996;7.044;2023-12-22T17:01:03;7.85;;;1.55;;
11287;SDS011;5700;50.996;7.044;2023-12-22T17:04:05;13.07;;;2.70;;
11287;SDS011;5700;50.996;7.044;2023-12-22T17:07:07;7.15;;;2.13;;
11287;SDS011;5700;50.996;7.044;2023-12-22T17:10:09;8.77;;;2.13;;
11287;SDS011;5700;50.996;7.044;2023-12-22T17:13:11;13.27;;;3.22;;
11287;SDS011;5700;50.996;7.044;2023-12-22T17:16:12;9.20;;;2.10;;
11287;SDS011;5700;50.996;7.044;2023-12-22T17:19:14;9.25;;;2.30;;
11287;SDS011;5700;50.996;7.044;2023-12-22T17:22:17;4.93;;;2.30;;
11287;SDS011;5700;50.996;7.044;2023-12-22T17:25:19;10.00;;;2.00;;
11287;SDS011;5700;50.996;7.044;2023-12-22T17:28:20;6.93;;;1.38;;
11287;SDS011;5700;50.996;7.044;2023-12-22T17:31:22;5.50;;;1.50;;
11287;SDS011;5700;50.996;7.044;2023-12-22T17:34:24;4.43;;;1.20;;
11287;SDS011;5700;50.996;7.044;2023-12-22T17:37:27;3.40;;;1.05;;
11287;SDS011;5700;50.996;7.044;2023-12-22T17:40:29;5.50;;;1.40;;
11287;SDS011;5700;50.996;7.044;2023-12-22T17:43:30;9.88;;;1.98;;
11287;SDS011;5700;50.996;7.044;2023-12-22T17:46:31;9.63;;;1.70;;
11287;SDS011;5700;50.996;7.044;2023-12-22T17:49:33;5.05;;;1.50;;
11287;SDS011;5700;50.996;7.044;2023-12-22T17:52:36;5.88;;;1.30;;
11287;SDS011;5700;50.996;7.044;2023-12-22T17:55:38;7.00;;;1.33;;
11287;SDS011;5700;50.996;7.044;2023-12-22T17:58:40;3.53;;;1.60;;
11287;SDS011;5700;50.996;7.044;2023-12-22T18:01:41;7.18;;;2.13;;
11287;SDS011;5700;50.996;7.044;2023-12-22T18:04:44;3.70;;;1.67;;
11287;SDS011;5700;50.996;7.044;2023-12-22T18:07:47;4.10;;;1.00;;
11287;SDS011;5700;50.996;7.044;2023-12-22T18:10:48;8.43;;;1.60;;
11287;SDS011;5700;50.996;7.044;2023-12-22T18:13:50;7.88;;;1.50;;
11287;SDS011;5700;50.996;7.044;2023-12-22T18:16:52;10.63;;;1.15;;
11287;SDS011;5700;50.996;7.044;2023-12-22T18:19:54;4.07;;;1.13;;
11287;SDS011;5700;50.996;7.044;2023-12-22T18:22:57;3.70;;;1.70;;
11287;SDS011;5700;50.996;7.044;2023-12-22T18:25:58;4.03;;;1.10;;
11287;SDS011;5700;50.996;7.044;2023-12-22T18:29:00;6.03;;;1.35;;
11287;SDS011;5700;50.996;7.044;2023-12-22T18:32:01;5.10;;;1.15;;
11287;SDS011;5700;50.996;7.044;2023-12-22T18:35:03;4.40;;;1.23;;
11287;SDS011;5700;50.996;7.044;2023-12-22T18:38:07;7.03;;;1.23;;